createdAt,value
2019-05-17T09:13:00.032Z,24.0921
2019-05-17T09:13:12.415Z,24.4472
2019-05-17T09:13:22.883Z,24.5167
2019-05-17T09:13:31.284Z,26.1242
2019-05-17T09:13:40.084Z,26.6770
2019-05-17T09:13:58.317Z,25.4192
2019-05-17T09:14:10.468Z,24.7143
2019-05-17T09:14:21.359Z,24.7143
2019-05-17T09:14:29.918Z,24.7436
2019-05-17T09:14:40.091Z,25.7183
2019-05-17T09:14:49.612Z,25.1522
2019-05-17T09:15:00.258Z,26.4099
2019-05-17T09:15:10.074Z,24.9119
2019-05-17T09:15:20.329Z,24.7837
2019-05-17T09:15:29.670Z,24.6849
2019-05-17T09:15:39.941Z,24.4900
2019-05-17T09:15:49.440Z,24.3778
2019-05-17T09:16:00.146Z,24.5033
2019-05-17T09:16:10.690Z,24.5460
2019-05-17T09:16:19.712Z,24.7009
2019-05-17T09:16:30.574Z,24.5167
2019-05-17T09:16:40.087Z,24.7143
2019-05-17T09:16:50.441Z,24.4339
2019-05-17T09:17:00.430Z,24.3351
2019-05-17T09:17:10.281Z,24.2630
2019-05-17T09:17:19.403Z,24.1775
2019-05-17T09:17:29.913Z,24.3778
2019-05-17T09:17:39.597Z,24.3217
2019-05-17T09:17:49.855Z,24.3351
2019-05-17T09:18:00.281Z,24.3618
2019-05-17T09:18:09.913Z,24.2630
2019-05-17T09:18:20.656Z,24.2203
2019-05-17T09:18:30.163Z,24.3217
2019-05-17T09:18:39.448Z,24.5888
2019-05-17T09:18:50.031Z,24.4766
2019-05-17T09:19:00.565Z,24.4766
2019-05-17T09:19:10.100Z,24.4179
2019-05-17T09:19:19.416Z,24.3778
2019-05-17T09:19:29.897Z,24.2630
2019-05-17T09:19:39.474Z,24.2470
2019-05-17T09:19:50.507Z,24.2336
2019-05-17T09:20:00.722Z,24.1775
2019-05-17T09:20:10.697Z,24.0787
2019-05-17T09:20:20.396Z,24.0520
2019-05-17T09:20:29.631Z,25.7744
2019-05-17T09:20:40.241Z,24.6715
2019-05-17T09:20:49.498Z,24.5594
2019-05-17T09:21:00.068Z,24.5033
2019-05-17T09:21:09.697Z,29.4862
2019-05-17T09:21:18.256Z,30.6023
2019-05-17T09:21:26.680Z,31.1818
2019-05-17T09:21:35.087Z,31.7906
2019-05-17T09:21:43.503Z,32.2553
2019-05-17T09:21:51.918Z,32.5116
2019-05-17T09:22:00.327Z,32.7653
2019-05-17T09:22:10.536Z,32.6104
2019-05-17T09:22:19.806Z,32.5677
2019-05-17T09:22:30.419Z,33.4169
2019-05-17T09:22:39.589Z,33.2887
2019-05-17T09:22:48.303Z,32.7520
2019-05-17T09:22:56.715Z,33.4596
2019-05-17T09:23:05.144Z,33.2033
2019-05-17T09:23:13.558Z,33.7133
2019-05-17T09:23:21.960Z,33.8842
2019-05-17T09:23:30.673Z,32.1004
2019-05-17T09:23:39.692Z,28.4848
2019-05-17T09:23:50.224Z,27.8626
2019-05-17T09:23:59.751Z,27.0027
2019-05-17T09:24:10.253Z,26.2417
2019-05-17T09:24:35.339Z,25.0401
2019-05-17T09:24:43.742Z,25.0534
2019-05-17T09:24:52.149Z,25.0961
2019-05-17T09:25:00.562Z,25.3071
2019-05-17T09:25:13.587Z,25.6329
2019-05-17T09:25:23.382Z,25.8999
2019-05-17T09:25:31.802Z,25.9987
2019-05-17T09:25:40.263Z,26.0548
2019-05-17T09:25:50.073Z,26.0975
2019-05-17T09:25:59.522Z,26.0975
2019-05-17T09:26:10.059Z,26.0681
2019-05-17T09:26:19.978Z,26.0414
2019-05-17T09:26:29.412Z,25.9987
2019-05-17T09:26:39.949Z,25.9854
2019-05-17T09:26:49.217Z,25.9293
2019-05-17T09:26:59.857Z,25.8438
2019-05-17T09:39:15.463Z,19.7448
2019-05-17T09:39:23.883Z,19.7875
2019-05-17T09:39:32.360Z,19.8276
2019-05-17T09:39:40.774Z,19.8703
2019-05-17T09:39:49.323Z,19.9424
2019-05-17T09:39:59.700Z,19.9718
2019-05-17T09:40:09.359Z,20.0278
2019-05-17T09:40:20.027Z,20.0999
2019-05-17T09:40:29.270Z,20.1560
2019-05-17T09:40:40.130Z,20.1827
2019-05-17T09:40:50.549Z,20.2682
2019-05-17T09:41:00.014Z,24.1348
2019-05-17T09:41:09.364Z,11.1410
2019-05-17T09:41:19.886Z,4.2035
2019-05-17T09:41:29.319Z,2.5719
2019-05-17T09:41:39.752Z,2.1607
2019-05-17T09:41:50.299Z,1.7121
2019-05-17T09:41:59.597Z,1.5011
2019-05-17T09:42:10.191Z,1.4157
2019-05-17T09:42:20.945Z,1.3302
2019-05-17T09:42:30.088Z,1.2741
2019-05-17T09:42:41.147Z,1.2181
2019-05-17T09:42:50.056Z,1.1780
2019-05-17T09:43:00.523Z,1.1486
2019-05-17T09:43:10.213Z,1.1486
2019-05-17T09:43:20.524Z,1.1166
2019-05-17T09:43:29.647Z,1.0899
2019-05-17T09:43:40.226Z,1.0338
2019-05-17T09:43:49.686Z,0.9911
2019-05-17T09:44:09.600Z,0.9644
2019-05-17T09:44:16.192Z,0.8923
2019-05-17T09:44:25.114Z,0.8923
2019-05-17T09:44:33.621Z,0.8362
2019-05-17T09:44:42.643Z,0.8362
2019-05-17T09:44:51.120Z,0.8228
2019-05-17T09:45:00.390Z,0.8095
2019-05-17T09:45:09.654Z,0.7935
2019-05-17T09:45:20.206Z,0.7801
2019-05-17T09:45:30.606Z,0.7801
2019-05-17T09:45:40.396Z,0.7374
2019-05-17T09:45:50.667Z,0.7801
2019-05-17T09:46:01.689Z,0.8228
2019-05-17T09:46:10.807Z,0.8095
2019-05-17T09:46:19.786Z,0.8095
2019-05-17T09:46:30.283Z,0.7935
2019-05-17T09:46:39.565Z,0.7668
